sensor_id;sensor_type;location;lat;lon;timestamp;P1;P2;P0
40947;PMS5003;49382;-25.924;28.194;2022-12-18T00:00:40;8;7;
40947;PMS5003;49382;-25.924;28.194;2022-12-18T00:03:06;34;32;
40947;PMS5003;49382;-25.924;28.194;2022-12-18T00:05:31;10;9;
40947;PMS5003;49382;-25.924;28.194;2022-12-18T00:07:57;8;8;
40947;PMS5003;49382;-25.924;28.194;2022-12-18T00:10:23;10;9;
40947;PMS5003;49382;-25.924;28.194;2022-12-18T00:12:49;34;32;
40947;PMS5003;49382;-25.924;28.194;2022-12-18T00:15:15;29;29;
40947;PMS5003;49382;-25.924;28.194;2022-12-18T00:17:40;36;36;
40947;PMS5003;49382;-25.924;28.194;2022-12-18T00:20:06;22;21;
40947;PMS5003;49382;-25.924;28.194;2022-12-18T00:22:31;17;17;
40947;PMS5003;49382;-25.924;28.194;2022-12-18T00:24:57;19;18;
40947;PMS5003;49382;-25.924;28.194;2022-12-18T00:27:23;16;16;
40947;PMS5003;49382;-25.924;28.194;2022-12-18T00:29:49;15;15;
40947;PMS5003;49382;-25.924;28.194;2022-12-18T00:32:15;18;18;
40947;PMS5003;49382;-25.924;28.194;2022-12-18T00:34:40;17;17;
40947;PMS5003;49382;-25.924;28.194;2022-12-18T00:37:06;14;14;
40947;PMS5003;49382;-25.924;28.194;2022-12-18T00:39:32;15;15;
40947;PMS5003;49382;-25.924;28.194;2022-12-18T00:41:58;12;11;
40947;PMS5003;49382;-25.924;28.194;2022-12-18T00:44:24;12;12;
40947;PMS5003;49382;-25.924;28.194;2022-12-18T00:46:49;9;9;
40947;PMS5003;49382;-25.924;28.194;2022-12-18T00:49:15;9;9;
40947;PMS5003;49382;-25.924;28.194;2022-12-18T00:51:40;11;11;
40947;PMS5003;49382;-25.924;28.194;2022-12-18T00:54:06;10;10;
40947;PMS5003;49382;-25.924;28.194;2022-12-18T00:56:32;11;11;
40947;PMS5003;49382;-25.924;28.194;2022-12-18T00:58:57;11;10;
40947;PMS5003;49382;-25.924;28.194;2022-12-18T01:01:23;9;9;
40947;PMS5003;49382;-25.924;28.194;2022-12-18T01:03:49;9;9;
40947;PMS5003;49382;-25.924;28.194;2022-12-18T01:06:16;11;11;
40947;PMS5003;49382;-25.924;28.194;2022-12-18T01:08:40;16;15;
40947;PMS5003;49382;-25.924;28.194;2022-12-18T01:11:07;11;11;
40947;PMS5003;49382;-25.924;28.194;2022-12-18T01:13:32;8;8;
40947;PMS5003;49382;-25.924;28.194;2022-12-18T01:15:58;11;11;
40947;PMS5003;49382;-25.924;28.194;2022-12-18T01:18:24;12;11;
40947;PMS5003;49382;-25.924;28.194;2022-12-18T01:20:49;11;11;
40947;PMS5003;49382;-25.924;28.194;2022-12-18T01:23:15;13;13;
40947;PMS5003;49382;-25.924;28.194;2022-12-18T01:25:41;12;12;
40947;PMS5003;49382;-25.924;28.194;2022-12-18T01:28:07;11;11;
40947;PMS5003;49382;-25.924;28.194;2022-12-18T01:30:32;10;10;
40947;PMS5003;49382;-25.924;28.194;2022-12-18T01:32:58;8;8;
40947;PMS5003;49382;-25.924;28.194;2022-12-18T01:35:23;14;14;
40947;PMS5003;49382;-25.924;28.194;2022-12-18T01:37:49;19;19;
40947;PMS5003;49382;-25.924;28.194;2022-12-18T01:40:15;9;7;
40947;PMS5003;49382;-25.924;28.194;2022-12-18T01:42:40;6;6;
40947;PMS5003;49382;-25.924;28.194;2022-12-18T01:45:08;7;7;
40947;PMS5003;49382;-25.924;28.194;2022-12-18T01:47:35;7;7;
40947;PMS5003;49382;-25.924;28.194;2022-12-18T01:49:59;7;7;
40947;PMS5003;49382;-25.924;28.194;2022-12-18T01:52:24;5;4;
40947;PMS5003;49382;-25.924;28.194;2022-12-18T01:54:49;5;5;
40947;PMS5003;49382;-25.924;28.194;2022-12-18T01:57:15;8;6;
40947;PMS5003;49382;-25.924;28.194;2022-12-18T01:59:41;6;6;
40947;PMS5003;49382;-25.924;28.194;2022-12-18T02:02:07;5;5;
40947;PMS5003;49382;-25.924;28.194;2022-12-18T02:04:33;7;6;
40947;PMS5003;49382;-25.924;28.194;2022-12-18T02:06:59;6;6;
40947;PMS5003;49382;-25.924;28.194;2022-12-18T02:09:25;4;4;
40947;PMS5003;49382;-25.924;28.194;2022-12-18T02:11:52;4;3;
40947;PMS5003;49382;-25.924;28.194;2022-12-18T02:14:17;5;5;
40947;PMS5003;49382;-25.924;28.194;2022-12-18T02:16:43;3;3;
40947;PMS5003;49382;-25.924;28.194;2022-12-18T02:19:10;3;3;
40947;PMS5003;49382;-25.924;28.194;2022-12-18T02:21:35;5;4;
40947;PMS5003;49382;-25.924;28.194;2022-12-18T02:24:01;3;3;
40947;PMS5003;49382;-25.924;28.194;2022-12-18T02:26:26;4;4;
40947;PMS5003;49382;-25.924;28.194;2022-12-18T02:28:51;3;3;
40947;PMS5003;49382;-25.924;28.194;2022-12-18T02:31:17;3;3;
40947;PMS5003;49382;-25.924;28.194;2022-12-18T02:33:42;3;3;
40947;PMS5003;49382;-25.924;28.194;2022-12-18T02:36:08;6;5;
40947;PMS5003;49382;-25.924;28.194;2022-12-18T02:38:33;6;6;
40947;PMS5003;49382;-25.924;28.194;2022-12-18T02:40:59;8;8;
40947;PMS5003;49382;-25.924;28.194;2022-12-18T02:43:25;9;9;
40947;PMS5003;49382;-25.924;28.194;2022-12-18T02:45:52;9;9;
40947;PMS5003;49382;-25.924;28.194;2022-12-18T02:48:17;11;11;
40947;PMS5003;49382;-25.924;28.194;2022-12-18T02:50:44;9;9;
40947;PMS5003;49382;-25.924;28.194;2022-12-18T02:53:10;8;8;
40947;PMS5003;49382;-25.924;28.194;2022-12-18T02:55:36;8;8;
40947;PMS5003;49382;-25.924;28.194;2022-12-18T02:58:01;9;9;
40947;PMS5003;49382;-25.924;28.194;2022-12-18T03:00:31;7;7;
40947;PMS5003;49382;-25.924;28.194;2022-12-18T03:02:53;10;9;
40947;PMS5003;49382;-25.924;28.194;2022-12-18T03:05:18;6;6;
40947;PMS5003;49382;-25.924;28.194;2022-12-18T03:07:44;7;7;
40947;PMS5003;49382;-25.924;28.194;2022-12-18T03:10:09;7;6;
40947;PMS5003;49382;-25.924;28.194;2022-12-18T03:12:35;5;5;
40947;PMS5003;49382;-25.924;28.194;2022-12-18T03:15:02;5;5;
40947;PMS5003;49382;-25.924;28.194;2022-12-18T03:17:26;6;5;
40947;PMS5003;49382;-25.924;28.194;2022-12-18T03:19:52;6;6;
40947;PMS5003;49382;-25.924;28.194;2022-12-18T03:22:17;5;5;
40947;PMS5003;49382;-25.924;28.194;2022-12-18T03:24:42;5;5;
40947;PMS5003;49382;-25.924;28.194;2022-12-18T03:27:09;5;5;
40947;PMS5003;49382;-25.924;28.194;2022-12-18T03:29:35;5;5;
40947;PMS5003;49382;-25.924;28.194;2022-12-18T03:32:01;6;6;
40947;PMS5003;49382;-25.924;28.194;2022-12-18T03:34:26;6;6;
40947;PMS5003;49382;-25.924;28.194;2022-12-18T03:36:51;8;8;
40947;PMS5003;49382;-25.924;28.194;2022-12-18T03:39:17;6;6;
40947;PMS5003;49382;-25.924;28.194;2022-12-18T03:41:43;7;7;
40947;PMS5003;49382;-25.924;28.194;2022-12-18T03:44:10;8;8;
40947;PMS5003;49382;-25.924;28.194;2022-12-18T03:46:38;8;8;
40947;PMS5003;49382;-25.924;28.194;2022-12-18T03:49:01;6;6;
40947;PMS5003;49382;-25.924;28.194;2022-12-18T03:51:26;7;7;
40947;PMS5003;49382;-25.924;28.194;2022-12-18T03:53:53;8;8;
40947;PMS5003;49382;-25.924;28.194;2022-12-18T03:56:18;9;9;
40947;PMS5003;49382;-25.924;28.194;2022-12-18T03:58:43;9;9;
40947;PMS5003;49382;-25.924;28.194;2022-12-18T04:01:09;11;11;
40947;PMS5003;49382;-25.924;28.194;2022-12-18T04:03:35;9;9;
40947;PMS5003;49382;-25.924;28.194;2022-12-18T04:06:00;8;8;
40947;PMS5003;49382;-25.924;28.194;2022-12-18T04:08:26;10;9;
40947;PMS5003;49382;-25.924;28.194;2022-12-18T04:10:52;11;11;
40947;PMS5003;49382;-25.924;28.194;2022-12-18T04:15:42;9;9;
40947;PMS5003;49382;-25.924;28.194;2022-12-18T04:18:08;9;9;
40947;PMS5003;49382;-25.924;28.194;2022-12-18T04:20:34;8;8;
40947;PMS5003;49382;-25.924;28.194;2022-12-18T04:23:00;8;7;
40947;PMS5003;49382;-25.924;28.194;2022-12-18T04:25:25;8;8;
40947;PMS5003;49382;-25.924;28.194;2022-12-18T04:27:51;10;10;
40947;PMS5003;49382;-25.924;28.194;2022-12-18T04:30:17;9;9;
40947;PMS5003;49382;-25.924;28.194;2022-12-18T04:32:43;11;10;
40947;PMS5003;49382;-25.924;28.194;2022-12-18T04:35:09;11;11;
40947;PMS5003;49382;-25.924;28.194;2022-12-18T04:37:35;15;15;
40947;PMS5003;49382;-25.924;28.194;2022-12-18T04:39:59;31;31;
40947;PMS5003;49382;-25.924;28.194;2022-12-18T04:42:25;29;28;
40947;PMS5003;49382;-25.924;28.194;2022-12-18T04:44:51;26;25;
40947;PMS5003;49382;-25.924;28.194;2022-12-18T04:47:17;25;25;
40947;PMS5003;49382;-25.924;28.194;2022-12-18T04:49:43;28;28;
40947;PMS5003;49382;-25.924;28.194;2022-12-18T04:52:08;14;14;
40947;PMS5003;49382;-25.924;28.194;2022-12-18T04:54:34;18;17;
40947;PMS5003;49382;-25.924;28.194;2022-12-18T04:57:00;19;18;
40947;PMS5003;49382;-25.924;28.194;2022-12-18T04:59:25;14;14;
40947;PMS5003;49382;-25.924;28.194;2022-12-18T05:01:50;14;13;
40947;PMS5003;49382;-25.924;28.194;2022-12-18T05:04:16;15;14;
40947;PMS5003;49382;-25.924;28.194;2022-12-18T05:06:42;13;13;
40947;PMS5003;49382;-25.924;28.194;2022-12-18T05:09:08;16;15;
40947;PMS5003;49382;-25.924;28.194;2022-12-18T05:11:33;14;13;
40947;PMS5003;49382;-25.924;28.194;2022-12-18T05:13:59;13;13;
40947;PMS5003;49382;-25.924;28.194;2022-12-18T05:16:24;20;17;
40947;PMS5003;49382;-25.924;28.194;2022-12-18T05:18:50;18;18;
40947;PMS5003;49382;-25.924;28.194;2022-12-18T05:21:16;16;16;
40947;PMS5003;49382;-25.924;28.194;2022-12-18T05:23:42;16;16;
40947;PMS5003;49382;-25.924;28.194;2022-12-18T05:26:08;15;14;
40947;PMS5003;49382;-25.924;28.194;2022-12-18T05:28:34;17;16;
40947;PMS5003;49382;-25.924;28.194;2022-12-18T05:31:00;16;15;
40947;PMS5003;49382;-25.924;28.194;2022-12-18T05:33:25;14;14;
40947;PMS5003;49382;-25.924;28.194;2022-12-18T05:35:50;13;12;
40947;PMS5003;49382;-25.924;28.194;2022-12-18T05:38:16;11;10;
40947;PMS5003;49382;-25.924;28.194;2022-12-18T05:40:42;9;9;
40947;PMS5003;49382;-25.924;28.194;2022-12-18T05:43:07;7;6;
40947;PMS5003;49382;-25.924;28.194;2022-12-18T05:45:36;8;7;
40947;PMS5003;49382;-25.924;28.194;2022-12-18T05:47:59;6;6;
40947;PMS5003;49382;-25.924;28.194;2022-12-18T05:50:25;10;9;
40947;PMS5003;49382;-25.924;28.194;2022-12-18T05:52:50;5;5;
40947;PMS5003;49382;-25.924;28.194;2022-12-18T05:55:16;5;5;
40947;PMS5003;49382;-25.924;28.194;2022-12-18T05:57:42;6;6;
40947;PMS5003;49382;-25.924;28.194;2022-12-18T06:00:08;5;5;
40947;PMS5003;49382;-25.924;28.194;2022-12-18T06:02:33;7;6;
40947;PMS5003;49382;-25.924;28.194;2022-12-18T06:04:59;4;4;
40947;PMS5003;49382;-25.924;28.194;2022-12-18T06:07:25;4;4;
40947;PMS5003;49382;-25.924;28.194;2022-12-18T06:09:51;5;5;
40947;PMS5003;49382;-25.924;28.194;2022-12-18T06:12:17;3;3;
40947;PMS5003;49382;-25.924;28.194;2022-12-18T06:14:42;3;3;
40947;PMS5003;49382;-25.924;28.194;2022-12-18T06:17:08;3;3;
40947;PMS5003;49382;-25.924;28.194;2022-12-18T06:19:33;2;2;
40947;PMS5003;49382;-25.924;28.194;2022-12-18T06:21:59;3;3;
40947;PMS5003;49382;-25.924;28.194;2022-12-18T06:24:25;2;2;
40947;PMS5003;49382;-25.924;28.194;2022-12-18T06:26:51;3;2;
40947;PMS5003;49382;-25.924;28.194;2022-12-18T06:29:16;2;2;
40947;PMS5003;49382;-25.924;28.194;2022-12-18T06:31:42;2;2;
40947;PMS5003;49382;-25.924;28.194;2022-12-18T06:34:08;3;2;
40947;PMS5003;49382;-25.924;28.194;2022-12-18T06:36:34;1;1;
40947;PMS5003;49382;-25.924;28.194;2022-12-18T06:39:00;2;2;
40947;PMS5003;49382;-25.924;28.194;2022-12-18T06:41:25;3;3;
40947;PMS5003;49382;-25.924;28.194;2022-12-18T06:43:51;1;1;
40947;PMS5003;49382;-25.924;28.194;2022-12-18T06:46:17;2;2;
40947;PMS5003;49382;-25.924;28.194;2022-12-18T06:48:42;1;1;
40947;PMS5003;49382;-25.924;28.194;2022-12-18T06:51:08;1;1;
40947;PMS5003;49382;-25.924;28.194;2022-12-18T06:53:34;2;2;
40947;PMS5003;49382;-25.924;28.194;2022-12-18T06:56:00;2;2;
40947;PMS5003;49382;-25.924;28.194;2022-12-18T06:58:25;1;1;
40947;PMS5003;49382;-25.924;28.194;2022-12-18T07:00:51;0;0;
40947;PMS5003;49382;-25.924;28.194;2022-12-18T07:03:16;2;1;
40947;PMS5003;49382;-25.924;28.194;2022-12-18T07:05:42;1;1;
40947;PMS5003;49382;-25.924;28.194;2022-12-18T07:08:08;4;4;
40947;PMS5003;49382;-25.924;28.194;2022-12-18T07:10:34;6;6;
40947;PMS5003;49382;-25.924;28.194;2022-12-18T07:13:00;14;14;
40947;PMS5003;49382;-25.924;28.194;2022-12-18T07:15:25;10;10;
40947;PMS5003;49382;-25.924;28.194;2022-12-18T07:17:51;13;13;
40947;PMS5003;49382;-25.924;28.194;2022-12-18T07:20:17;1;1;
40947;PMS5003;49382;-25.924;28.194;2022-12-18T07:22:43;1;1;
40947;PMS5003;49382;-25.924;28.194;2022-12-18T07:25:08;1;1;
40947;PMS5003;49382;-25.924;28.194;2022-12-18T07:27:34;1;1;
40947;PMS5003;49382;-25.924;28.194;2022-12-18T07:30:00;2;2;
40947;PMS5003;49382;-25.924;28.194;2022-12-18T07:32:25;1;1;
40947;PMS5003;49382;-25.924;28.194;2022-12-18T07:34:51;1;1;
40947;PMS5003;49382;-25.924;28.194;2022-12-18T07:37:17;1;1;
40947;PMS5003;49382;-25.924;28.194;2022-12-18T07:39:43;2;2;
40947;PMS5003;49382;-25.924;28.194;2022-12-18T07:42:08;2;2;
40947;PMS5003;49382;-25.924;28.194;2022-12-18T07:44:34;2;2;
40947;PMS5003;49382;-25.924;28.194;2022-12-18T07:47:00;2;2;
40947;PMS5003;49382;-25.924;28.194;2022-12-18T07:49:25;2;2;
40947;PMS5003;49382;-25.924;28.194;2022-12-18T07:51:51;2;2;
40947;PMS5003;49382;-25.924;28.194;2022-12-18T07:54:17;4;4;
40947;PMS5003;49382;-25.924;28.194;2022-12-18T07:56:42;4;4;
40947;PMS5003;49382;-25.924;28.194;2022-12-18T07:59:09;2;2;
40947;PMS5003;49382;-25.924;28.194;2022-12-18T08:01:34;2;2;
40947;PMS5003;49382;-25.924;28.194;2022-12-18T08:04:00;2;2;
40947;PMS5003;49382;-25.924;28.194;2022-12-18T08:06:25;3;3;
40947;PMS5003;49382;-25.924;28.194;2022-12-18T08:08:52;2;2;
40947;PMS5003;49382;-25.924;28.194;2022-12-18T08:11:17;2;2;
40947;PMS5003;49382;-25.924;28.194;2022-12-18T08:13:43;1;1;
40947;PMS5003;49382;-25.924;28.194;2022-12-18T08:16:08;2;2;
40947;PMS5003;49382;-25.924;28.194;2022-12-18T08:18:35;1;1;
40947;PMS5003;49382;-25.924;28.194;2022-12-18T08:23:25;1;1;
40947;PMS5003;49382;-25.924;28.194;2022-12-18T08:25:51;2;2;
40947;PMS5003;49382;-25.924;28.194;2022-12-18T08:28:17;2;2;
40947;PMS5003;49382;-25.924;28.194;2022-12-18T08:30:42;2;2;
40947;PMS5003;49382;-25.924;28.194;2022-12-18T08:33:08;2;2;
40947;PMS5003;49382;-25.924;28.194;2022-12-18T08:35:35;2;2;
40947;PMS5003;49382;-25.924;28.194;2022-12-18T08:37:59;3;3;
40947;PMS5003;49382;-25.924;28.194;2022-12-18T08:40:25;2;2;
40947;PMS5003;49382;-25.924;28.194;2022-12-18T08:42:51;2;2;
40947;PMS5003;49382;-25.924;28.194;2022-12-18T08:45:17;3;3;
40947;PMS5003;49382;-25.924;28.194;2022-12-18T08:47:42;1;1;
40947;PMS5003;49382;-25.924;28.194;2022-12-18T08:50:09;2;2;
40947;PMS5003;49382;-25.924;28.194;2022-12-18T08:52:34;3;3;
40947;PMS5003;49382;-25.924;28.194;2022-12-18T08:55:00;2;2;
40947;PMS5003;49382;-25.924;28.194;2022-12-18T08:57:25;3;3;
40947;PMS5003;49382;-25.924;28.194;2022-12-18T08:59:51;3;3;
40947;PMS5003;49382;-25.924;28.194;2022-12-18T09:02:17;3;3;
40947;PMS5003;49382;-25.924;28.194;2022-12-18T09:04:42;4;4;
40947;PMS5003;49382;-25.924;28.194;2022-12-18T09:07:08;3;3;
40947;PMS5003;49382;-25.924;28.194;2022-12-18T09:09:34;1;1;
40947;PMS5003;49382;-25.924;28.194;2022-12-18T09:11:59;3;3;
40947;PMS5003;49382;-25.924;28.194;2022-12-18T09:14:25;3;3;
40947;PMS5003;49382;-25.924;28.194;2022-12-18T09:16:51;4;4;
40947;PMS5003;49382;-25.924;28.194;2022-12-18T09:19:16;3;3;
40947;PMS5003;49382;-25.924;28.194;2022-12-18T09:21:42;9;9;
40947;PMS5003;49382;-25.924;28.194;2022-12-18T09:24:08;4;3;
40947;PMS5003;49382;-25.924;28.194;2022-12-18T09:26:33;2;2;
40947;PMS5003;49382;-25.924;28.194;2022-12-18T09:28:59;3;3;
40947;PMS5003;49382;-25.924;28.194;2022-12-18T09:31:25;3;3;
40947;PMS5003;49382;-25.924;28.194;2022-12-18T09:33:50;3;3;
40947;PMS5003;49382;-25.924;28.194;2022-12-18T09:36:16;4;4;
40947;PMS5003;49382;-25.924;28.194;2022-12-18T09:38:42;4;4;
40947;PMS5003;49382;-25.924;28.194;2022-12-18T09:43:35;3;3;
40947;PMS5003;49382;-25.924;28.194;2022-12-18T09:46:00;3;3;
40947;PMS5003;49382;-25.924;28.194;2022-12-18T09:48:26;2;2;
40947;PMS5003;49382;-25.924;28.194;2022-12-18T09:50:50;3;3;
40947;PMS5003;49382;-25.924;28.194;2022-12-18T09:53:17;5;5;
40947;PMS5003;49382;-25.924;28.194;2022-12-18T09:55:42;3;3;
40947;PMS5003;49382;-25.924;28.194;2022-12-18T09:58:12;2;2;
40947;PMS5003;49382;-25.924;28.194;2022-12-18T10:00:33;2;2;
40947;PMS5003;49382;-25.924;28.194;2022-12-18T10:02:59;4;3;
40947;PMS5003;49382;-25.924;28.194;2022-12-18T10:05:27;3;3;
40947;PMS5003;49382;-25.924;28.194;2022-12-18T10:07:53;3;3;
40947;PMS5003;49382;-25.924;28.194;2022-12-18T10:10:19;3;3;
40947;PMS5003;49382;-25.924;28.194;2022-12-18T10:12:43;3;3;
40947;PMS5003;49382;-25.924;28.194;2022-12-18T10:15:10;2;2;
40947;PMS5003;49382;-25.924;28.194;2022-12-18T10:17:35;6;6;
40947;PMS5003;49382;-25.924;28.194;2022-12-18T10:19:59;3;3;
40947;PMS5003;49382;-25.924;28.194;2022-12-18T10:22:28;3;3;
40947;PMS5003;49382;-25.924;28.194;2022-12-18T10:24:52;4;4;
40947;PMS5003;49382;-25.924;28.194;2022-12-18T10:27:17;2;2;
40947;PMS5003;49382;-25.924;28.194;2022-12-18T10:29:42;3;3;
40947;PMS5003;49382;-25.924;28.194;2022-12-18T10:32:07;4;4;
40947;PMS5003;49382;-25.924;28.194;2022-12-18T10:34:33;4;4;
40947;PMS5003;49382;-25.924;28.194;2022-12-18T10:36:59;3;3;
40947;PMS5003;49382;-25.924;28.194;2022-12-18T10:39:24;3;3;
40947;PMS5003;49382;-25.924;28.194;2022-12-18T10:41:50;4;4;
40947;PMS5003;49382;-25.924;28.194;2022-12-18T10:44:17;4;4;
40947;PMS5003;49382;-25.924;28.194;2022-12-18T10:46:41;4;4;
40947;PMS5003;49382;-25.924;28.194;2022-12-18T10:49:17;4;4;
40947;PMS5003;49382;-25.924;28.194;2022-12-18T10:51:34;4;4;
40947;PMS5003;49382;-25.924;28.194;2022-12-18T10:53:59;4;4;
40947;PMS5003;49382;-25.924;28.194;2022-12-18T10:56:26;4;4;
40947;PMS5003;49382;-25.924;28.194;2022-12-18T11:01:16;5;5;
40947;PMS5003;49382;-25.924;28.194;2022-12-18T11:03:43;3;3;
40947;PMS5003;49382;-25.924;28.194;2022-12-18T11:06:08;32;31;
40947;PMS5003;49382;-25.924;28.194;2022-12-18T11:08:32;33;33;
40947;PMS5003;49382;-25.924;28.194;2022-12-18T11:10:58;18;18;
40947;PMS5003;49382;-25.924;28.194;2022-12-18T11:13:23;58;58;
40947;PMS5003;49382;-25.924;28.194;2022-12-18T11:15:48;33;33;
40947;PMS5003;49382;-25.924;28.194;2022-12-18T11:18:16;31;31;
40947;PMS5003;49382;-25.924;28.194;2022-12-18T11:20:39;43;43;
40947;PMS5003;49382;-25.924;28.194;2022-12-18T11:23:05;25;25;
40947;PMS5003;49382;-25.924;28.194;2022-12-18T11:25:29;43;43;
40947;PMS5003;49382;-25.924;28.194;2022-12-18T11:27:56;76;76;
40947;PMS5003;49382;-25.924;28.194;2022-12-18T11:30:22;29;29;
40947;PMS5003;49382;-25.924;28.194;2022-12-18T11:32:46;20;19;
40947;PMS5003;49382;-25.924;28.194;2022-12-18T11:35:15;36;36;
40947;PMS5003;49382;-25.924;28.194;2022-12-18T11:37:37;74;74;
40947;PMS5003;49382;-25.924;28.194;2022-12-18T11:40:05;41;41;
40947;PMS5003;49382;-25.924;28.194;2022-12-18T11:42:30;36;36;
40947;PMS5003;49382;-25.924;28.194;2022-12-18T11:44:55;22;22;
40947;PMS5003;49382;-25.924;28.194;2022-12-18T11:47:21;55;55;
40947;PMS5003;49382;-25.924;28.194;2022-12-18T11:49:45;32;32;
40947;PMS5003;49382;-25.924;28.194;2022-12-18T11:52:13;52;52;
40947;PMS5003;49382;-25.924;28.194;2022-12-18T11:54:35;8;8;
40947;PMS5003;49382;-25.924;28.194;2022-12-18T11:57:02;17;17;
40947;PMS5003;49382;-25.924;28.194;2022-12-18T11:59:29;49;49;
40947;PMS5003;49382;-25.924;28.194;2022-12-18T12:01:52;15;14;
40947;PMS5003;49382;-25.924;28.194;2022-12-18T12:04:23;17;17;
40947;PMS5003;49382;-25.924;28.194;2022-12-18T12:06:45;56;56;
40947;PMS5003;49382;-25.924;28.194;2022-12-18T12:09:10;98;97;
40947;PMS5003;49382;-25.924;28.194;2022-12-18T12:11:37;22;22;
40947;PMS5003;49382;-25.924;28.194;2022-12-18T12:14:03;32;32;
40947;PMS5003;49382;-25.924;28.194;2022-12-18T12:16:25;14;13;
40947;PMS5003;49382;-25.924;28.194;2022-12-18T12:18:55;71;71;
40947;PMS5003;49382;-25.924;28.194;2022-12-18T12:21:17;34;34;
40947;PMS5003;49382;-25.924;28.194;2022-12-18T12:23:42;16;15;
40947;PMS5003;49382;-25.924;28.194;2022-12-18T12:26:07;13;13;
40947;PMS5003;49382;-25.924;28.194;2022-12-18T12:28:37;42;42;
40947;PMS5003;49382;-25.924;28.194;2022-12-18T12:31:00;13;13;
40947;PMS5003;49382;-25.924;28.194;2022-12-18T12:33:26;28;28;
40947;PMS5003;49382;-25.924;28.194;2022-12-18T12:35:50;27;26;
40947;PMS5003;49382;-25.924;28.194;2022-12-18T12:38:14;38;38;
40947;PMS5003;49382;-25.924;28.194;2022-12-18T12:40:41;57;57;
40947;PMS5003;49382;-25.924;28.194;2022-12-18T12:43:10;60;60;
40947;PMS5003;49382;-25.924;28.194;2022-12-18T12:45:32;19;19;
40947;PMS5003;49382;-25.924;28.194;2022-12-18T12:47:55;18;18;
40947;PMS5003;49382;-25.924;28.194;2022-12-18T12:50:21;53;53;
40947;PMS5003;49382;-25.924;28.194;2022-12-18T12:52:47;14;13;
40947;PMS5003;49382;-25.924;28.194;2022-12-18T12:55:14;59;59;
40947;PMS5003;49382;-25.924;28.194;2022-12-18T12:57:39;25;25;
40947;PMS5003;49382;-25.924;28.194;2022-12-18T13:00:05;67;67;
40947;PMS5003;49382;-25.924;28.194;2022-12-18T13:02:30;25;25;
40947;PMS5003;49382;-25.924;28.194;2022-12-18T13:04:56;56;56;
40947;PMS5003;49382;-25.924;28.194;2022-12-18T13:07:21;37;37;
40947;PMS5003;49382;-25.924;28.194;2022-12-18T13:12:11;64;64;
40947;PMS5003;49382;-25.924;28.194;2022-12-18T13:14:37;20;20;
40947;PMS5003;49382;-25.924;28.194;2022-12-18T13:19:28;31;31;
40947;PMS5003;49382;-25.924;28.194;2022-12-18T13:21:54;24;24;
40947;PMS5003;49382;-25.924;28.194;2022-12-18T13:24:21;51;51;
40947;PMS5003;49382;-25.924;28.194;2022-12-18T13:26:43;28;28;
40947;PMS5003;49382;-25.924;28.194;2022-12-18T13:29:08;70;70;
40947;PMS5003;49382;-25.924;28.194;2022-12-18T13:36:28;29;29;
40947;PMS5003;49382;-25.924;28.194;2022-12-18T13:43:41;18;18;
40947;PMS5003;49382;-25.924;28.194;2022-12-18T13:48:32;34;34;
40947;PMS5003;49382;-25.924;28.194;2022-12-18T13:50:58;47;47;
40947;PMS5003;49382;-25.924;28.194;2022-12-18T13:53:23;42;42;
40947;PMS5003;49382;-25.924;28.194;2022-12-18T13:55:47;51;51;
40947;PMS5003;49382;-25.924;28.194;2022-12-18T13:58:13;36;36;
40947;PMS5003;49382;-25.924;28.194;2022-12-18T14:00:41;51;51;
40947;PMS5003;49382;-25.924;28.194;2022-12-18T14:05:30;38;38;
40947;PMS5003;49382;-25.924;28.194;2022-12-18T14:07:55;8;7;
40947;PMS5003;49382;-25.924;28.194;2022-12-18T14:10:20;31;31;
40947;PMS5003;49382;-25.924;28.194;2022-12-18T14:12:46;25;25;
40947;PMS5003;49382;-25.924;28.194;2022-12-18T14:15:15;7;7;
40947;PMS5003;49382;-25.924;28.194;2022-12-18T14:17:36;37;37;
40947;PMS5003;49382;-25.924;28.194;2022-12-18T14:20:02;44;44;
40947;PMS5003;49382;-25.924;28.194;2022-12-18T14:22:27;8;8;
40947;PMS5003;49382;-25.924;28.194;2022-12-18T14:27:20;75;75;
40947;PMS5003;49382;-25.924;28.194;2022-12-18T14:29:44;45;45;
40947;PMS5003;49382;-25.924;28.194;2022-12-18T14:32:11;21;21;
40947;PMS5003;49382;-25.924;28.194;2022-12-18T14:34:35;63;63;
40947;PMS5003;49382;-25.924;28.194;2022-12-18T14:37:00;25;25;
40947;PMS5003;49382;-25.924;28.194;2022-12-18T14:39:26;26;26;
40947;PMS5003;49382;-25.924;28.194;2022-12-18T14:41:51;19;19;
40947;PMS5003;49382;-25.924;28.194;2022-12-18T14:44:16;66;66;
40947;PMS5003;49382;-25.924;28.194;2022-12-18T14:46:42;31;31;
40947;PMS5003;49382;-25.924;28.194;2022-12-18T14:51:32;20;20;
40947;PMS5003;49382;-25.924;28.194;2022-12-18T14:53:58;13;13;
40947;PMS5003;49382;-25.924;28.194;2022-12-18T14:56:23;15;14;
40947;PMS5003;49382;-25.924;28.194;2022-12-18T14:58:49;28;28;
40947;PMS5003;49382;-25.924;28.194;2022-12-18T15:03:42;63;63;
40947;PMS5003;49382;-25.924;28.194;2022-12-18T15:08:31;138;138;
40947;PMS5003;49382;-25.924;28.194;2022-12-18T15:10:55;231;230;
40947;PMS5003;49382;-25.924;28.194;2022-12-18T15:13:21;418;410;
40947;PMS5003;49382;-25.924;28.194;2022-12-18T15:15:46;624;620;
40947;PMS5003;49382;-25.924;28.194;2022-12-18T15:18:11;922;909;
40947;PMS5003;49382;-25.924;28.194;2022-12-18T15:20:39;656;650;
40947;PMS5003;49382;-25.924;28.194;2022-12-18T15:23:02;325;323;
40947;PMS5003;49382;-25.924;28.194;2022-12-18T15:25:29;44;43;
40947;PMS5003;49382;-25.924;28.194;2022-12-18T15:27:52;27;27;
40947;PMS5003;49382;-25.924;28.194;2022-12-18T15:30:19;55;55;
40947;PMS5003;49382;-25.924;28.194;2022-12-18T15:32:43;6;6;
40947;PMS5003;49382;-25.924;28.194;2022-12-18T15:35:11;7;7;
40947;PMS5003;49382;-25.924;28.194;2022-12-18T15:37:35;2;2;
40947;PMS5003;49382;-25.924;28.194;2022-12-18T15:40:00;3;3;
40947;PMS5003;49382;-25.924;28.194;2022-12-18T15:42:26;2;2;
40947;PMS5003;49382;-25.924;28.194;2022-12-18T15:44:52;5;5;
40947;PMS5003;49382;-25.924;28.194;2022-12-18T15:47:17;11;10;
40947;PMS5003;49382;-25.924;28.194;2022-12-18T15:49:43;11;11;
40947;PMS5003;49382;-25.924;28.194;2022-12-18T15:52:09;14;13;
40947;PMS5003;49382;-25.924;28.194;2022-12-18T15:54:34;39;37;
40947;PMS5003;49382;-25.924;28.194;2022-12-18T15:57:00;41;41;
40947;PMS5003;49382;-25.924;28.194;2022-12-18T15:59:25;12;12;
40947;PMS5003;49382;-25.924;28.194;2022-12-18T16:01:51;5;5;
40947;PMS5003;49382;-25.924;28.194;2022-12-18T16:04:17;4;4;
40947;PMS5003;49382;-25.924;28.194;2022-12-18T16:06:42;4;4;
40947;PMS5003;49382;-25.924;28.194;2022-12-18T16:09:08;4;3;
40947;PMS5003;49382;-25.924;28.194;2022-12-18T16:11:34;2;2;
40947;PMS5003;49382;-25.924;28.194;2022-12-18T16:13:59;4;3;
40947;PMS5003;49382;-25.924;28.194;2022-12-18T16:16:25;4;3;
40947;PMS5003;49382;-25.924;28.194;2022-12-18T16:18:51;5;5;
40947;PMS5003;49382;-25.924;28.194;2022-12-18T16:21:16;3;3;
40947;PMS5003;49382;-25.924;28.194;2022-12-18T16:23:42;3;3;
40947;PMS5003;49382;-25.924;28.194;2022-12-18T16:26:08;4;4;
40947;PMS5003;49382;-25.924;28.194;2022-12-18T16:28:33;1;1;
40947;PMS5003;49382;-25.924;28.194;2022-12-18T16:30:59;4;4;